Time;durP1;ratioP1;P1;durP2;ratioP2;P2;SDS_P1;SDS_P2;PMS_P1;PMS_P2;Temp;Humidity;BMP_temperature;BMP_pressure;BME280_temperature;BME280_humidity;BME280_pressure;Samples;Min_cycle;Max_cycle;Signal;HPM_P1;HPM_P2
2021/06/16 00:02:44;;;;;;;9.77;4.80;;;;;;;;;;8347162;28;20501;-69
2021/06/16 00:06:51;;;;;;;7.18;4.72;;;;;;;;;;8336423;28;20478;-68
2021/06/16 00:10:56;;;;;;;9.02;4.60;;;;;;;;;;8361551;28;20454;-69
2021/06/16 00:15:02;;;;;;;9.30;3.83;;;;;;;;;;8362057;28;20512;-69
2021/06/16 00:19:08;;;;;;;9.68;4.40;;;;;;;;;;8361831;28;20394;-69
2021/06/16 00:23:12;;;;;;;10.95;4.57;;;;;;;;;;8360216;28;20455;-69
2021/06/16 00:27:19;;;;;;;5.97;4.20;;;;;;;;;;8361578;28;20442;-69
2021/06/16 00:31:24;;;;;;;9.85;4.88;;;;;;;;;;8343570;28;20482;-68
2021/06/16 00:35:29;;;;;;;8.45;4.85;;;;;;;;;;8360901;28;20398;-68
2021/06/16 00:39:35;;;;;;;6.82;4.00;;;;;;;;;;8361617;28;20454;-68
2021/06/16 00:43:41;;;;;;;6.50;4.18;;;;;;;;;;8362229;28;20366;-68
2021/06/16 00:47:47;;;;;;;8.45;4.88;;;;;;;;;;8343820;28;20355;-68
2021/06/16 00:51:52;;;;;;;7.32;4.03;;;;;;;;;;8360890;28;20450;-68
2021/06/16 00:55:57;;;;;;;8.50;3.83;;;;;;;;;;8362246;28;20358;-68
2021/06/16 01:00:09;;;;;;;9.20;4.47;;;;;;;;;;8361813;28;20466;-68
2021/06/16 01:04:22;;;;;;;8.13;4.53;;;;;;;;;;8362421;28;20482;-69
2021/06/16 01:08:33;;;;;;;11.80;5.15;;;;;;;;;;8343965;28;20354;-68
2021/06/16 01:12:38;;;;;;;7.57;4.82;;;;;;;;;;8342542;28;20074;-68
2021/06/16 01:16:52;;;;;;;6.35;4.35;;;;;;;;;;8361761;28;20369;-67
2021/06/16 01:20:59;;;;;;;8.15;4.25;;;;;;;;;;8358952;28;20335;-68
2021/06/16 01:25:15;;;;;;;8.48;4.90;;;;;;;;;;8342637;28;20351;-68
2021/06/16 01:29:26;;;;;;;8.00;4.38;;;;;;;;;;8360393;28;20426;-68
2021/06/16 01:33:32;;;;;;;7.65;4.40;;;;;;;;;;8343131;28;20495;-68
2021/06/16 01:37:38;;;;;;;5.75;4.22;;;;;;;;;;8342139;28;20355;-68
2021/06/16 01:41:44;;;;;;;9.95;4.57;;;;;;;;;;8357685;28;20482;-68
2021/06/16 01:45:50;;;;;;;7.78;3.80;;;;;;;;;;8358184;28;20378;-68
2021/06/16 01:50:00;;;;;;;7.17;3.90;;;;;;;;;;8358735;28;20488;-68
2021/06/16 01:54:09;;;;;;;8.48;4.38;;;;;;;;;;8341665;28;20462;-68
2021/06/16 01:58:19;;;;;;;6.88;4.20;;;;;;;;;;8360717;28;20458;-69
2021/06/16 02:02:25;;;;;;;8.70;4.30;;;;;;;;;;8357595;28;20501;-68
2021/06/16 02:06:36;;;;;;;12.65;4.13;;;;;;;;;;8358572;28;20074;-69
2021/06/16 02:10:52;;;;;;;6.68;4.10;;;;;;;;;;8342469;28;20340;-68
2021/06/16 02:15:01;;;;;;;6.88;4.50;;;;;;;;;;8324579;28;20432;-68
2021/06/16 02:19:14;;;;;;;4.65;3.03;;;;;;;;;;8322566;28;20356;-69
2021/06/16 02:23:22;;;;;;;9.45;3.90;;;;;;;;;;8324894;28;20493;-68
2021/06/16 02:27:27;;;;;;;8.88;3.45;;;;;;;;;;8340127;28;20482;-68
2021/06/16 02:31:34;;;;;;;6.70;3.60;;;;;;;;;;8323212;28;20560;-68
2021/06/16 02:35:40;;;;;;;6.47;3.97;;;;;;;;;;8326944;28;20462;-68
2021/06/16 02:39:54;;;;;;;5.95;3.95;;;;;;;;;;8323047;28;20355;-68
2021/06/16 02:44:00;;;;;;;6.82;3.90;;;;;;;;;;8322710;28;20478;-67
2021/06/16 02:48:11;;;;;;;6.75;4.00;;;;;;;;;;8323604;28;20363;-67
2021/06/16 02:52:19;;;;;;;9.00;4.20;;;;;;;;;;8321956;28;20071;-68
2021/06/16 02:56:24;;;;;;;9.60;4.20;;;;;;;;;;8338390;28;20360;-68
2021/06/16 03:00:31;;;;;;;9.43;3.78;;;;;;;;;;8324507;28;20055;-68
2021/06/16 03:04:36;;;;;;;5.13;3.70;;;;;;;;;;8338116;28;20048;-68
2021/06/16 03:08:44;;;;;;;6.28;3.55;;;;;;;;;;8337996;28;20409;-67
2021/06/16 03:12:52;;;;;;;6.88;3.60;;;;;;;;;;8330042;28;20055;-68
2021/06/16 03:16:59;;;;;;;7.47;4.00;;;;;;;;;;8356131;28;20076;-67
2021/06/16 03:21:05;;;;;;;8.18;4.05;;;;;;;;;;8356097;28;20357;-67
2021/06/16 03:25:12;;;;;;;6.93;4.45;;;;;;;;;;8357040;28;20051;-67
2021/06/16 03:29:20;;;;;;;6.00;4.00;;;;;;;;;;8356769;28;20474;-67
2021/06/16 03:33:25;;;;;;;8.15;4.20;;;;;;;;;;8355304;28;20626;-67
2021/06/16 03:37:32;;;;;;;9.18;4.28;;;;;;;;;;8337910;28;20075;-67
2021/06/16 03:41:39;;;;;;;8.20;4.40;;;;;;;;;;8360073;28;20382;-67
2021/06/16 03:45:46;;;;;;;8.55;4.43;;;;;;;;;;8363283;28;20363;-67
2021/06/16 03:49:53;;;;;;;6.65;4.47;;;;;;;;;;8362852;28;20362;-67
2021/06/16 03:53:59;;;;;;;7.47;5.03;;;;;;;;;;8361045;28;20412;-67
2021/06/16 03:58:05;;;;;;;7.43;4.75;;;;;;;;;;8346130;28;20340;-67
2021/06/16 04:02:10;;;;;;;9.15;4.18;;;;;;;;;;8361472;28;20470;-67
2021/06/16 04:06:16;;;;;;;8.57;4.13;;;;;;;;;;8362393;28;20060;-67
2021/06/16 04:10:26;;;;;;;7.30;4.13;;;;;;;;;;8344888;28;20055;-67
2021/06/16 04:14:31;;;;;;;12.32;4.47;;;;;;;;;;8361249;28;20370;-67
2021/06/16 04:18:41;;;;;;;6.72;3.75;;;;;;;;;;8362139;28;20335;-67
2021/06/16 04:22:47;;;;;;;9.73;4.10;;;;;;;;;;8361937;28;20467;-68
2021/06/16 04:26:52;;;;;;;9.52;4.15;;;;;;;;;;8361105;28;20055;-67
2021/06/16 04:30:57;;;;;;;6.30;4.25;;;;;;;;;;8363108;28;20442;-66
2021/06/16 04:35:03;;;;;;;6.93;3.97;;;;;;;;;;8362122;28;20367;-67
2021/06/16 04:39:09;;;;;;;9.07;3.83;;;;;;;;;;8344539;28;20052;-67
2021/06/16 04:43:14;;;;;;;10.85;4.00;;;;;;;;;;8362394;28;20344;-68
2021/06/16 04:47:21;;;;;;;9.63;4.00;;;;;;;;;;8361578;28;20485;-68
2021/06/16 04:51:26;;;;;;;6.97;4.20;;;;;;;;;;8361041;28;20047;-68
2021/06/16 04:55:32;;;;;;;6.72;3.90;;;;;;;;;;8361626;28;20466;-69
2021/06/16 04:59:37;;;;;;;7.85;4.22;;;;;;;;;;8361356;28;20051;-68
2021/06/16 05:03:43;;;;;;;6.50;3.38;;;;;;;;;;8360811;28;20478;-67
2021/06/16 05:07:46;;;;;;;10.27;4.00;;;;;;;;;;8363107;28;20047;-68
2021/06/16 05:11:52;;;;;;;5.65;3.60;;;;;;;;;;8361934;28;20089;-68
2021/06/16 05:15:58;;;;;;;10.98;3.92;;;;;;;;;;8363165;28;20374;-67
2021/06/16 05:20:06;;;;;;;13.88;3.40;;;;;;;;;;8360109;28;20052;-67
2021/06/16 05:24:13;;;;;;;8.73;3.58;;;;;;;;;;8361896;28;20485;-68
2021/06/16 05:28:19;;;;;;;8.07;3.58;;;;;;;;;;8341860;28;20474;-67
2021/06/16 05:32:24;;;;;;;7.50;3.65;;;;;;;;;;8360806;28;20500;-68
2021/06/16 05:36:31;;;;;;;8.45;3.53;;;;;;;;;;8360010;28;20507;-67
2021/06/16 05:40:38;;;;;;;5.93;3.78;;;;;;;;;;8360780;28;20044;-68
2021/06/16 05:44:42;;;;;;;5.95;3.08;;;;;;;;;;8359027;28;20366;-67
2021/06/16 05:48:47;;;;;;;6.32;3.05;;;;;;;;;;8359216;28;20066;-68
2021/06/16 05:52:53;;;;;;;9.27;3.30;;;;;;;;;;8359361;28;20386;-68
2021/06/16 05:56:58;;;;;;;5.05;3.25;;;;;;;;;;8359103;28;20355;-67
2021/06/16 06:01:05;;;;;;;8.02;3.53;;;;;;;;;;8359533;28;20378;-69
2021/06/16 06:05:12;;;;;;;4.72;2.97;;;;;;;;;;8359142;28;20458;-67
2021/06/16 06:09:17;;;;;;;5.60;3.00;;;;;;;;;;8359993;28;20044;-68
2021/06/16 06:13:22;;;;;;;13.85;7.43;;;;;;;;;;8360527;28;20051;-69
2021/06/16 06:17:28;;;;;;;8.10;3.80;;;;;;;;;;8358277;28;20477;-68
2021/06/16 06:21:33;;;;;;;7.32;3.78;;;;;;;;;;8358378;28;20478;-68
2021/06/16 06:25:40;;;;;;;6.32;3.00;;;;;;;;;;8358909;28;20051;-69
2021/06/16 06:29:46;;;;;;;6.57;3.40;;;;;;;;;;8359834;28;20504;-68
2021/06/16 06:33:51;;;;;;;16.65;2.75;;;;;;;;;;8340888;28;20979;-68
2021/06/16 06:37:56;;;;;;;6.88;2.85;;;;;;;;;;8356783;28;20454;-68
2021/06/16 06:42:01;;;;;;;5.55;3.20;;;;;;;;;;8356690;28;20493;-68
2021/06/16 06:46:07;;;;;;;4.68;2.58;;;;;;;;;;8356295;28;20344;-70
2021/06/16 06:50:14;;;;;;;3.50;1.98;;;;;;;;;;8357779;28;20055;-69
2021/06/16 06:54:19;;;;;;;3.33;1.90;;;;;;;;;;8357467;28;20390;-70
2021/06/16 06:58:25;;;;;;;3.63;1.70;;;;;;;;;;8339400;28;20047;-69
2021/06/16 07:02:30;;;;;;;3.50;2.08;;;;;;;;;;8355462;28;20462;-68
2021/06/16 07:06:36;;;;;;;9.70;2.58;;;;;;;;;;8357350;28;20473;-69
2021/06/16 07:10:41;;;;;;;6.78;2.15;;;;;;;;;;8357468;28;20453;-69
2021/06/16 07:14:46;;;;;;;2.95;1.92;;;;;;;;;;8355829;28;20358;-68
2021/06/16 07:18:52;;;;;;;5.30;2.20;;;;;;;;;;8355783;28;20535;-68
2021/06/16 07:22:57;;;;;;;4.55;2.20;;;;;;;;;;8358970;28;20366;-70
2021/06/16 07:27:04;;;;;;;3.10;1.77;;;;;;;;;;8357851;28;20056;-69
2021/06/16 07:31:10;;;;;;;3.03;1.90;;;;;;;;;;8355912;28;20060;-69
2021/06/16 07:35:17;;;;;;;8.17;2.43;;;;;;;;;;8354958;28;20370;-69
2021/06/16 07:39:22;;;;;;;2.63;2.08;;;;;;;;;;8356583;28;20465;-69
2021/06/16 07:43:28;;;;;;;3.72;2.08;;;;;;;;;;8355792;28;20381;-68
2021/06/16 07:47:34;;;;;;;4.88;2.15;;;;;;;;;;8338728;28;20397;-69
2021/06/16 07:51:39;;;;;;;8.13;3.17;;;;;;;;;;8355817;28;20070;-70
2021/06/16 07:55:44;;;;;;;6.45;2.97;;;;;;;;;;8355893;28;20074;-69
2021/06/16 07:59:50;;;;;;;7.20;2.60;;;;;;;;;;8354618;28;20505;-70
2021/06/16 08:03:55;;;;;;;4.13;1.88;;;;;;;;;;8355322;28;20508;-68
2021/06/16 08:08:01;;;;;;;5.35;2.30;;;;;;;;;;8355026;28;20047;-69
2021/06/16 08:12:08;;;;;;;5.97;2.40;;;;;;;;;;8355612;28;20377;-69
2021/06/16 08:16:14;;;;;;;5.50;2.53;;;;;;;;;;8354843;28;20410;-69
2021/06/16 08:20:20;;;;;;;8.68;2.28;;;;;;;;;;8356609;28;20454;-69
2021/06/16 08:24:27;;;;;;;4.80;2.23;;;;;;;;;;8356839;28;20489;-69
2021/06/16 08:28:32;;;;;;;4.72;2.40;;;;;;;;;;8356945;28;20485;-69
2021/06/16 08:32:38;;;;;;;7.40;2.17;;;;;;;;;;8361196;28;20457;-69
2021/06/16 08:36:45;;;;;;;5.22;2.60;;;;;;;;;;8363418;28;20372;-69
2021/06/16 08:41:00;;;;;;;5.57;2.40;;;;;;;;;;8359074;28;20583;-69
2021/06/16 08:45:07;;;;;;;9.13;2.50;;;;;;;;;;8364089;28;20374;-69
2021/06/16 08:49:12;;;;;;;7.35;2.35;;;;;;;;;;8361677;28;20458;-69
2021/06/16 08:53:18;;;;;;;9.10;2.70;;;;;;;;;;8362113;28;20390;-70
2021/06/16 08:57:23;;;;;;;5.70;2.17;;;;;;;;;;8361553;28;20457;-69
2021/06/16 09:01:28;;;;;;;4.22;2.58;;;;;;;;;;8361029;28;20493;-69
2021/06/16 09:05:41;;;;;;;5.68;2.35;;;;;;;;;;8362347;28;20364;-69
2021/06/16 09:09:49;;;;;;;3.80;1.92;;;;;;;;;;8361226;28;20463;-68
2021/06/16 09:14:15;;;;;;;4.53;1.98;;;;;;;;;;8360619;28;20401;-68
2021/06/16 09:18:20;;;;;;;6.03;2.20;;;;;;;;;;8360464;28;20070;-69
2021/06/16 09:22:33;;;;;;;5.00;2.35;;;;;;;;;;8359851;28;20460;-69
2021/06/16 09:26:41;;;;;;;3.58;2.50;;;;;;;;;;8362365;28;20399;-69
2021/06/16 09:30:46;;;;;;;9.38;2.53;;;;;;;;;;8362593;28;20052;-69
2021/06/16 09:34:55;;;;;;;5.05;2.40;;;;;;;;;;8359503;28;20455;-70
2021/06/16 09:39:09;;;;;;;6.60;2.42;;;;;;;;;;8357027;28;20348;-69
2021/06/16 09:43:21;;;;;;;4.07;2.40;;;;;;;;;;8359081;28;20469;-69
2021/06/16 09:47:26;;;;;;;5.15;2.50;;;;;;;;;;8359346;28;20416;-68
2021/06/16 09:51:35;;;;;;;5.40;2.30;;;;;;;;;;8342594;28;20070;-69
2021/06/16 09:55:41;;;;;;;4.07;2.72;;;;;;;;;;8360304;28;20378;-69
2021/06/16 09:59:46;;;;;;;5.40;2.70;;;;;;;;;;8360208;28;20358;-67
2021/06/16 10:03:52;;;;;;;4.82;2.60;;;;;;;;;;8359453;28;20400;-70
2021/06/16 10:07:57;;;;;;;4.25;2.80;;;;;;;;;;8360241;28;20378;-69
2021/06/16 10:12:03;;;;;;;8.30;2.53;;;;;;;;;;8358961;28;20339;-68
2021/06/16 10:16:07;;;;;;;10.55;2.83;;;;;;;;;;8355097;28;20413;-70
2021/06/16 10:20:14;;;;;;;3.90;2.25;;;;;;;;;;8359351;28;20393;-69
2021/06/16 10:24:20;;;;;;;4.80;2.60;;;;;;;;;;8357864;28;20454;-68
2021/06/16 10:28:31;;;;;;;7.22;2.60;;;;;;;;;;8356785;28;20397;-68
2021/06/16 10:32:47;;;;;;;3.85;2.45;;;;;;;;;;8339075;28;20351;-67
2021/06/16 10:37:05;;;;;;;4.43;2.13;;;;;;;;;;8356897;28;20458;-67
2021/06/16 10:41:11;;;;;;;5.90;2.45;;;;;;;;;;8355678;28;20367;-67
2021/06/16 10:45:22;;;;;;;3.47;2.33;;;;;;;;;;8340530;28;20055;-68
2021/06/16 10:49:43;;;;;;;3.70;2.10;;;;;;;;;;8355646;28;20409;-68
2021/06/16 10:54:13;;;;;;;8.25;2.58;;;;;;;;;;8356278;28;20377;-68
2021/06/16 10:58:21;;;;;;;5.03;2.47;;;;;;;;;;8359170;28;20363;-67
2021/06/16 11:02:26;;;;;;;;;;;;;;;;;;8357285;28;20336;-68
2021/06/16 11:06:34;;;;;;;6.38;2.45;;;;;;;;;;8356381;28;20347;-67
2021/06/16 11:10:58;;;;;;;3.78;2.05;;;;;;;;;;8357177;28;20065;-68
2021/06/16 11:15:09;;;;;;;4.72;2.20;;;;;;;;;;8357768;28;20378;-68
2021/06/16 11:19:38;;;;;;;5.20;2.63;;;;;;;;;;8358545;28;20430;-67
2021/06/16 11:23:50;;;;;;;6.97;2.50;;;;;;;;;;8355269;28;20504;-67
2021/06/16 11:28:12;;;;;;;5.03;2.63;;;;;;;;;;8358157;28;20459;-68
2021/06/16 11:32:17;;;;;;;4.25;2.58;;;;;;;;;;8355790;28;20044;-68
2021/06/16 11:36:42;;;;;;;3.53;2.08;;;;;;;;;;8356374;28;20366;-68
2021/06/16 11:41:06;;;;;;;8.18;2.70;;;;;;;;;;8354674;28;20449;-68
2021/06/16 11:45:12;;;;;;;4.78;2.45;;;;;;;;;;8357762;28;20453;-68
2021/06/16 11:49:24;;;;;;;9.02;2.92;;;;;;;;;;8357496;28;20447;-68
2021/06/16 11:53:33;;;;;;;3.70;2.38;;;;;;;;;;8355580;28;20087;-70
2021/06/16 11:57:38;;;;;;;7.60;2.50;;;;;;;;;;8356748;28;20481;-68
2021/06/16 12:01:45;;;;;;;4.38;2.75;;;;;;;;;;8339510;28;20354;-69
2021/06/16 12:06:04;;;;;;;4.70;2.55;;;;;;;;;;8362489;28;20454;-68
2021/06/16 12:10:14;;;;;;;4.95;2.10;;;;;;;;;;8363484;28;20493;-68
2021/06/16 12:14:23;;;;;;;5.35;2.60;;;;;;;;;;8361626;28;20363;-68
2021/06/16 12:18:32;;;;;;;4.68;2.30;;;;;;;;;;8343347;28;20358;-68
2021/06/16 12:22:38;;;;;;;5.60;2.55;;;;;;;;;;8360900;28;20517;-68
2021/06/16 12:26:43;;;;;;;5.82;2.42;;;;;;;;;;8361125;28;20474;-68
2021/06/16 12:30:48;;;;;;;5.65;2.72;;;;;;;;;;8361066;28;20378;-69
2021/06/16 12:35:18;;;;;;;3.15;2.38;;;;;;;;;;8359939;28;20484;-68
2021/06/16 12:39:26;;;;;;;5.38;2.45;;;;;;;;;;8363135;28;20074;-68
2021/06/16 12:43:32;;;;;;;5.38;2.45;;;;;;;;;;8360675;28;20510;-68
2021/06/16 12:47:37;;;;;;;4.45;2.28;;;;;;;;;;8359570;28;20393;-69
2021/06/16 12:51:52;;;;;;;5.40;2.30;;;;;;;;;;8340224;28;20443;-68
2021/06/16 12:56:02;;;;;;;4.30;2.40;;;;;;;;;;8342781;28;20792;-69
2021/06/16 13:00:15;;;;;;;6.75;2.38;;;;;;;;;;8362245;28;20477;-68
2021/06/16 13:04:50;;;;;;;7.57;2.38;;;;;;;;;;8361640;28;20439;-68
2021/06/16 13:09:01;;;;;;;5.03;2.42;;;;;;;;;;8360124;28;20507;-68
2021/06/16 13:13:16;;;;;;;3.33;2.35;;;;;;;;;;8361269;28;20470;-67
2021/06/16 13:17:21;;;;;;;4.70;2.83;;;;;;;;;;8360599;28;20383;-68
2021/06/16 13:21:26;;;;;;;3.45;1.83;;;;;;;;;;8342399;28;20481;-68
2021/06/16 13:25:34;;;;;;;7.63;2.90;;;;;;;;;;8363113;28;20497;-69
2021/06/16 13:29:39;;;;;;;5.18;2.38;;;;;;;;;;8361434;28;20375;-69
2021/06/16 13:33:46;;;;;;;3.80;2.10;;;;;;;;;;8360830;28;20472;-68
2021/06/16 13:37:51;;;;;;;3.45;2.05;;;;;;;;;;8359102;28;20834;-68
2021/06/16 13:42:00;;;;;;;4.65;2.47;;;;;;;;;;8360576;28;20474;-68
2021/06/16 13:46:05;;;;;;;3.83;2.25;;;;;;;;;;8342910;28;20463;-68
2021/06/16 13:50:13;;;;;;;4.63;2.47;;;;;;;;;;8360584;28;20477;-68
2021/06/16 13:54:21;;;;;;;3.85;2.53;;;;;;;;;;8357516;28;20463;-68
2021/06/16 13:58:27;;;;;;;5.32;2.38;;;;;;;;;;8358571;28;20401;-68
2021/06/16 14:02:34;;;;;;;2.83;2.28;;;;;;;;;;8357524;28;20350;-68
2021/06/16 14:06:39;;;;;;;;;;;;;;;;;;8359047;28;20470;-68
2021/06/16 14:10:45;;;;;;;4.18;2.63;;;;;;;;;;8357965;28;20242;-68
2021/06/16 14:14:51;;;;;;;7.68;2.88;;;;;;;;;;8356496;28;20455;-68
2021/06/16 14:18:57;;;;;;;3.92;2.70;;;;;;;;;;8357901;28;20359;-68
2021/06/16 14:23:04;;;;;;;6.78;2.58;;;;;;;;;;8360408;28;20480;-68
2021/06/16 14:27:10;;;;;;;4.88;2.45;;;;;;;;;;8358474;28;20478;-68
2021/06/16 14:31:17;;;;;;;5.32;2.85;;;;;;;;;;8359112;28;20079;-67
2021/06/16 14:35:22;;;;;;;4.22;2.42;;;;;;;;;;8359163;28;20404;-68
2021/06/16 14:39:27;;;;;;;7.95;3.17;;;;;;;;;;8359104;28;20482;-68
2021/06/16 14:43:33;;;;;;;5.22;2.80;;;;;;;;;;8357299;28;20384;-69
2021/06/16 14:47:38;;;;;;;9.52;3.55;;;;;;;;;;8357249;28;20356;-68
2021/06/16 14:51:43;;;;;;;5.10;3.58;;;;;;;;;;8323274;28;20374;-68
2021/06/16 14:55:48;;;;;;;7.72;2.88;;;;;;;;;;8357587;28;20485;-69
2021/06/16 14:59:53;;;;;;;10.77;3.13;;;;;;;;;;8356407;28;20382;-68
2021/06/16 15:03:59;;;;;;;7.20;3.30;;;;;;;;;;8356136;28;20052;-68
2021/06/16 15:08:03;;;;;;;5.53;2.50;;;;;;;;;;8357127;28;20434;-68
2021/06/16 15:12:09;;;;;;;5.32;2.78;;;;;;;;;;8357183;28;20485;-68
2021/06/16 15:16:15;;;;;;;6.13;3.15;;;;;;;;;;8355727;28;20508;-68
2021/06/16 15:20:21;;;;;;;5.70;3.20;;;;;;;;;;8355382;28;20492;-68
2021/06/16 15:24:26;;;;;;;8.13;2.85;;;;;;;;;;8357842;28;20408;-68
2021/06/16 15:28:32;;;;;;;5.00;3.20;;;;;;;;;;8337904;28;20350;-70
2021/06/16 15:32:38;;;;;;;5.25;2.53;;;;;;;;;;8338604;28;20559;-69
2021/06/16 15:36:44;;;;;;;4.57;2.83;;;;;;;;;;8355930;28;20379;-68
2021/06/16 15:40:49;;;;;;;4.93;2.72;;;;;;;;;;8356216;28;20410;-69
2021/06/16 15:44:55;;;;;;;7.75;2.58;;;;;;;;;;8355999;28;20070;-68
2021/06/16 15:49:00;;;;;;;6.70;2.97;;;;;;;;;;8357059;28;20474;-69
2021/06/16 15:53:06;;;;;;;5.35;3.22;;;;;;;;;;8355384;28;20405;-68
2021/06/16 15:57:12;;;;;;;8.43;3.38;;;;;;;;;;8356444;28;20420;-70
2021/06/16 16:01:17;;;;;;;8.60;2.40;;;;;;;;;;8356878;28;20370;-68
2021/06/16 16:05:24;;;;;;;5.88;3.22;;;;;;;;;;8356293;28;20383;-69
2021/06/16 16:09:29;;;;;;;5.88;2.92;;;;;;;;;;8356184;28;20497;-68
2021/06/16 16:13:35;;;;;;;5.10;3.25;;;;;;;;;;8354595;28;20378;-69
2021/06/16 16:17:40;;;;;;;6.95;3.10;;;;;;;;;;8355288;28;20332;-68
2021/06/16 16:21:47;;;;;;;5.15;3.22;;;;;;;;;;8355523;28;20113;-68
2021/06/16 16:25:51;;;;;;;6.95;3.65;;;;;;;;;;8355256;28;20470;-68
2021/06/16 16:29:57;;;;;;;4.90;3.28;;;;;;;;;;8353696;28;20336;-68
2021/06/16 16:34:03;;;;;;;5.17;3.10;;;;;;;;;;8355180;28;20493;-68
2021/06/16 16:38:09;;;;;;;6.50;3.65;;;;;;;;;;8354810;28;20044;-68
2021/06/16 16:42:13;;;;;;;9.07;3.35;;;;;;;;;;8355035;28;20469;-68
2021/06/16 16:46:18;;;;;;;8.68;3.67;;;;;;;;;;8353878;28;20351;-68
2021/06/16 16:50:24;;;;;;;5.43;2.92;;;;;;;;;;8358445;28;20472;-68
2021/06/16 16:54:30;;;;;;;6.10;3.50;;;;;;;;;;8361947;28;20373;-68
2021/06/16 16:58:35;;;;;;;7.38;3.60;;;;;;;;;;8344197;28;20468;-67
2021/06/16 17:02:40;;;;;;;5.40;3.40;;;;;;;;;;8362690;28;20408;-69
2021/06/16 17:06:46;;;;;;;12.10;3.30;;;;;;;;;;8362605;28;20390;-67
2021/06/16 17:10:52;;;;;;;7.72;3.78;;;;;;;;;;8362307;28;20357;-67
2021/06/16 17:14:55;;;;;;;6.63;3.10;;;;;;;;;;8359298;28;20060;-67
2021/06/16 17:19:00;;;;;;;6.72;3.60;;;;;;;;;;8356823;28;20074;-67
2021/06/16 17:23:07;;;;;;;5.72;3.35;;;;;;;;;;8361182;28;20366;-67
2021/06/16 17:27:12;;;;;;;6.55;3.40;;;;;;;;;;8359573;28;20066;-68
2021/06/16 17:31:17;;;;;;;5.35;3.22;;;;;;;;;;8360111;28;20482;-68
2021/06/16 17:35:23;;;;;;;7.30;3.53;;;;;;;;;;8340927;28;20471;-67
2021/06/16 17:39:31;;;;;;;4.85;2.90;;;;;;;;;;8359756;28;20473;-68
2021/06/16 17:43:37;;;;;;;7.75;3.08;;;;;;;;;;8340422;28;20466;-68
2021/06/16 17:47:43;;;;;;;7.85;3.78;;;;;;;;;;8358872;28;20476;-67
2021/06/16 17:51:48;;;;;;;7.28;3.53;;;;;;;;;;8358850;28;20474;-68
2021/06/16 17:55:55;;;;;;;8.30;3.55;;;;;;;;;;8361529;28;20660;-68
2021/06/16 17:59:59;;;;;;;7.13;4.20;;;;;;;;;;8357965;28;20377;-67
2021/06/16 18:04:04;;;;;;;5.65;3.35;;;;;;;;;;8359168;28;20472;-68
2021/06/16 18:08:09;;;;;;;9.50;3.80;;;;;;;;;;8358328;28;20058;-66
2021/06/16 18:12:15;;;;;;;8.07;4.18;;;;;;;;;;8360790;28;20359;-68
2021/06/16 18:16:21;;;;;;;8.30;4.45;;;;;;;;;;8357311;28;20375;-68
2021/06/16 18:20:27;;;;;;;7.10;3.67;;;;;;;;;;8357236;28;20469;-67
2021/06/16 18:24:33;;;;;;;12.05;5.35;;;;;;;;;;8357848;28;20387;-67
2021/06/16 18:28:39;;;;;;;;;;;;;;;;;;8358856;28;20381;-67
2021/06/16 18:32:44;;;;;;;18.80;5.05;;;;;;;;;;8358985;28;20326;-67
2021/06/16 18:36:52;;;;;;;14.90;5.85;;;;;;;;;;8357482;28;20484;-68
2021/06/16 18:40:58;;;;;;;15.70;7.18;;;;;;;;;;8358157;28;20355;-67
2021/06/16 18:45:06;;;;;;;22.70;7.25;;;;;;;;;;8359020;28;20449;-67
2021/06/16 18:49:12;;;;;;;45.42;18.70;;;;;;;;;;8338855;28;20472;-67
2021/06/16 18:53:18;;;;;;;44.75;14.02;;;;;;;;;;8356718;28;20052;-68
2021/06/16 18:57:23;;;;;;;24.58;9.52;;;;;;;;;;8339815;28;20470;-69
2021/06/16 19:01:30;;;;;;;31.85;10.45;;;;;;;;;;8359949;28;20443;-67
2021/06/16 19:05:43;;;;;;;25.43;9.00;;;;;;;;;;8357993;28;20365;-67
2021/06/16 19:09:50;;;;;;;29.25;8.45;;;;;;;;;;8357370;28;20469;-67
2021/06/16 19:13:55;;;;;;;22.60;8.40;;;;;;;;;;8355102;28;20374;-68
2021/06/16 19:18:01;;;;;;;16.02;7.80;;;;;;;;;;8357291;28;20051;-68
2021/06/16 19:22:07;;;;;;;17.00;7.85;;;;;;;;;;8356925;28;20472;-67
2021/06/16 19:26:13;;;;;;;17.40;7.10;;;;;;;;;;8359515;28;20397;-67
2021/06/16 19:30:19;;;;;;;16.02;7.35;;;;;;;;;;8357271;28;20419;-67
2021/06/16 19:34:25;;;;;;;13.32;7.78;;;;;;;;;;8359248;28;20330;-67
2021/06/16 19:38:31;;;;;;;17.25;7.53;;;;;;;;;;8362117;28;20051;-68
2021/06/16 19:42:37;;;;;;;17.05;7.63;;;;;;;;;;8357827;28;20487;-67
2021/06/16 19:46:42;;;;;;;16.90;7.22;;;;;;;;;;8357691;28;20430;-67
2021/06/16 19:50:48;;;;;;;24.02;8.13;;;;;;;;;;8355238;28;20485;-67
2021/06/16 19:54:54;;;;;;;14.68;7.25;;;;;;;;;;8356680;28;20078;-67
2021/06/16 19:58:58;;;;;;;13.68;6.72;;;;;;;;;;8357157;28;20462;-68
2021/06/16 20:03:04;;;;;;;14.40;6.57;;;;;;;;;;8357018;28;20358;-67
2021/06/16 20:07:10;;;;;;;14.20;7.40;;;;;;;;;;8357678;28;20404;-67
2021/06/16 20:11:16;;;;;;;12.57;7.25;;;;;;;;;;8355336;28;20363;-67
2021/06/16 20:15:22;;;;;;;13.18;8.07;;;;;;;;;;8321177;28;20386;-67
2021/06/16 20:19:26;;;;;;;12.23;7.18;;;;;;;;;;8323106;28;20358;-68
2021/06/16 20:23:32;;;;;;;16.88;8.32;;;;;;;;;;8325195;28;20070;-68
2021/06/16 20:27:37;;;;;;;15.75;7.47;;;;;;;;;;8327124;28;20044;-67
2021/06/16 20:31:43;;;;;;;14.52;7.13;;;;;;;;;;8329540;28;20390;-68
2021/06/16 20:35:49;;;;;;;11.10;6.68;;;;;;;;;;8341824;28;20561;-68
2021/06/16 20:39:54;;;;;;;12.07;7.05;;;;;;;;;;8327878;28;20048;-70
2021/06/16 20:44:00;;;;;;;12.25;6.53;;;;;;;;;;8327371;28;20490;-67
2021/06/16 20:48:08;;;;;;;17.90;6.68;;;;;;;;;;8325321;28;20378;-68
2021/06/16 20:52:13;;;;;;;18.60;6.95;;;;;;;;;;8329257;28;20509;-67
2021/06/16 20:56:18;;;;;;;15.52;6.68;;;;;;;;;;8327850;28;20040;-68
2021/06/16 21:00:24;;;;;;;13.68;6.35;;;;;;;;;;8328812;28;20043;-68
2021/06/16 21:04:30;;;;;;;13.88;7.35;;;;;;;;;;8327024;28;20362;-68
2021/06/16 21:08:35;;;;;;;14.98;7.18;;;;;;;;;;8326509;28;20482;-69
2021/06/16 21:12:41;;;;;;;13.43;7.18;;;;;;;;;;8328399;28;20055;-68
2021/06/16 21:16:46;;;;;;;11.05;6.63;;;;;;;;;;8359343;28;20055;-68
2021/06/16 21:20:54;;;;;;;10.43;6.55;;;;;;;;;;8360674;28;20462;-68
2021/06/16 21:24:59;;;;;;;;;;;;;;;;;;8342726;28;20040;-68
2021/06/16 21:29:05;;;;;;;12.55;6.43;;;;;;;;;;8342382;28;20257;-68
2021/06/16 21:33:12;;;;;;;9.27;6.30;;;;;;;;;;8360491;28;20369;-68
2021/06/16 21:37:17;;;;;;;11.80;6.50;;;;;;;;;;8358418;28;20328;-68
2021/06/16 21:41:23;;;;;;;13.60;6.88;;;;;;;;;;8360448;28;20424;-67
2021/06/16 21:45:27;;;;;;;9.85;6.32;;;;;;;;;;8340400;28;20362;-69
2021/06/16 21:49:33;;;;;;;14.25;6.18;;;;;;;;;;8357519;28;20386;-68
2021/06/16 21:53:39;;;;;;;10.60;6.40;;;;;;;;;;8359857;28;20051;-69
2021/06/16 21:57:44;;;;;;;14.35;7.30;;;;;;;;;;8358761;28;20367;-68
2021/06/16 22:01:52;;;;;;;14.27;6.28;;;;;;;;;;8357242;28;20501;-68
2021/06/16 22:05:58;;;;;;;11.97;7.13;;;;;;;;;;8357486;28;20332;-68
2021/06/16 22:10:06;;;;;;;9.57;6.13;;;;;;;;;;8358742;28;20382;-69
2021/06/16 22:14:14;;;;;;;12.05;6.35;;;;;;;;;;8340051;28;20484;-69
2021/06/16 22:18:19;;;;;;;8.38;5.90;;;;;;;;;;8356271;28;20499;-68
2021/06/16 22:22:25;;;;;;;9.82;5.43;;;;;;;;;;8358833;28;20052;-68
2021/06/16 22:26:29;;;;;;;12.90;6.88;;;;;;;;;;8358582;28;20051;-68
2021/06/16 22:30:35;;;;;;;8.27;5.97;;;;;;;;;;8358345;28;20044;-68
2021/06/16 22:34:40;;;;;;;12.73;6.53;;;;;;;;;;8340801;28;20469;-68
2021/06/16 22:38:46;;;;;;;13.93;6.85;;;;;;;;;;8357833;28;20375;-68
2021/06/16 22:42:52;;;;;;;10.85;6.45;;;;;;;;;;8357405;28;20467;-68
2021/06/16 22:46:57;;;;;;;10.40;6.40;;;;;;;;;;8356785;28;20393;-68
2021/06/16 22:51:02;;;;;;;10.23;6.60;;;;;;;;;;8358018;28;20362;-68
2021/06/16 22:55:08;;;;;;;10.95;6.50;;;;;;;;;;8323176;28;20347;-68
2021/06/16 22:59:14;;;;;;;14.70;6.28;;;;;;;;;;8339205;28;20446;-68
2021/06/16 23:03:20;;;;;;;12.82;7.30;;;;;;;;;;8341827;28;20343;-69
2021/06/16 23:07:25;;;;;;;8.57;5.85;;;;;;;;;;8356641;28;20508;-69
2021/06/16 23:11:31;;;;;;;12.40;6.68;;;;;;;;;;8357003;28;20340;-68
2021/06/16 23:15:37;;;;;;;11.75;6.80;;;;;;;;;;8355399;28;20374;-68
2021/06/16 23:19:43;;;;;;;17.33;8.00;;;;;;;;;;8357146;28;20458;-68
2021/06/16 23:23:49;;;;;;;10.95;6.38;;;;;;;;;;8354447;28;20477;-68
2021/06/16 23:27:54;;;;;;;10.48;6.82;;;;;;;;;;8356232;28;20489;-68
2021/06/16 23:32:02;;;;;;;14.85;6.47;;;;;;;;;;8356005;28;20417;-68
2021/06/16 23:36:06;;;;;;;14.13;6.65;;;;;;;;;;8354556;28;20101;-69
2021/06/16 23:40:14;;;;;;;14.82;7.10;;;;;;;;;;8357222;28;20496;-69
2021/06/16 23:44:19;;;;;;;10.50;6.68;;;;;;;;;;8338558;28;20385;-69
2021/06/16 23:48:26;;;;;;;13.65;6.00;;;;;;;;;;8356799;28;20352;-69
2021/06/16 23:52:31;;;;;;;11.25;6.00;;;;;;;;;;8358972;28;20373;-68
2021/06/16 23:56:36;;;;;;;12.10;6.97;;;;;;;;;;8355996;28;20354;-69
